Weather reports worldwide

Advertisment
Fylingdales, United Kingdom (3281): temperature & dewpoint: 11.08.2018 00:00:00 - 17.08.2018 00:00:00 (BST)Fylingdales, United Kingdom (3281): wind speed & gusts: 11.08.2018 00:00:00 - 17.08.2018 00:00:00 (BST)Fylingdales, United Kingdom (3281): wind direction: 11.08.2018 00:00:00 - 17.08.2018 00:00:00 (BST)Fylingdales, United Kingdom (3281): precipitation: 11.08.2018 00:00:00 - 17.08.2018 00:00:00 (BST)
Date & Time tt [°C] td [°C] ff [km/h] ff [kn] fx [km/h] fx [kn] dd rr [mm]
17.08.2018 00:00:00 10,0 8,8 18 10 - - SW 0,0
16.08.2018 23:00:00 10,8 9,3 22 12 - - SW 0,0
16.08.2018 22:00:00 11,2 9,4 21 11 - - WSW 0,0
16.08.2018 21:00:00 11,5 8,9 18 10 - - SW 0,0
16.08.2018 20:00:00 13,9 8,7 24 13 - - WSW 0,0
16.08.2018 19:00:00 14,8 7,8 24 13 46 25 WSW 0,0
16.08.2018 18:00:00 15,5 8,6 26 14 50 27 WSW 0,0
16.08.2018 17:00:00 16,5 8,6 26 14 - - WSW 0,0
16.08.2018 16:00:00 15,2 9,2 29 16 - - WSW 0,0
16.08.2018 15:00:00 16,2 8,6 26 14 - - WSW 0,0
16.08.2018 14:00:00 16,2 9,4 24 13 46 25 WSW 0,0
16.08.2018 13:00:00 16,3 10,3 21 11 - - WSW 0,0
16.08.2018 12:00:00 13,7 10,9 18 10 - - WSW 0,0
16.08.2018 11:00:00 12,9 10,9 16 9 - - WSW 0,0
16.08.2018 10:00:00 12,8 11,8 16 9 - - WSW 0,0
16.08.2018 09:00:00 12,8 11,1 16 9 - - SW 0,2
16.08.2018 08:00:00 13,4 12,9 21 11 - - W 1,0
16.08.2018 07:00:00 14,6 13,7 22 12 - - SSW 0,0
16.08.2018 06:00:00 14,9 14,3 26 14 - - SW 0,2
16.08.2018 05:00:00 15,2 14,8 22 12 - - SW 0,2
16.08.2018 04:00:00 15,8 15,4 29 16 - - SSW 0,2
16.08.2018 03:00:00 15,9 15,4 28 15 - - SSW 0,0
16.08.2018 02:00:00 15,4 15,3 22 12 - - SSW 0,0
16.08.2018 01:00:00 14,9 14,5 24 13 - - WSW 2,4
16.08.2018 00:00:00 15,6 15,2 21 11 - - WSW 0,4
15.08.2018 23:00:00 16,9 15,5 34 18 52 28 SSW 0,0
15.08.2018 22:00:00 16,9 15,7 37 20 50 27 SSW 0,2
15.08.2018 21:00:00 16,9 16,1 35 19 54 29 SSW 2,2
15.08.2018 20:00:00 18,0 15,8 34 18 57 31 SW 0,2
15.08.2018 19:00:00 20,1 15,1 34 18 48 26 SW 0,0
15.08.2018 18:00:00 20,8 15,2 34 18 50 27 SW 0,0
15.08.2018 17:00:00 20,8 15,2 37 20 55 30 SW 0,0
15.08.2018 16:00:00 20,7 15,6 31 17 - - SSW 0,0
15.08.2018 15:00:00 19,6 15,2 34 18 48 26 SW 0,0
15.08.2018 14:00:00 19,5 15,1 29 16 - - SSW 0,0
15.08.2018 13:00:00 19,6 15,2 29 16 54 29 SSW 0,0
15.08.2018 12:00:00 19,4 14,9 39 21 54 29 SW 0,0
15.08.2018 11:00:00 17,9 14,7 26 14 50 27 SSW 0,0
15.08.2018 10:00:00 17,0 14,6 31 17 48 26 SSW 0,0
15.08.2018 09:00:00 16,5 14,0 31 17 46 25 SW 0,0
15.08.2018 08:00:00 15,7 14,2 26 14 - - SW 0,0
15.08.2018 07:00:00 14,9 13,9 28 15 - - SSW 0,0
15.08.2018 06:00:00 15,2 13,9 22 12 - - SW 0,0
15.08.2018 05:00:00 15,6 14,2 24 13 - - SW 0,0
15.08.2018 04:00:00 16,0 14,4 22 12 - - WSW 0,0
15.08.2018 03:00:00 16,0 14,5 16 9 - - SW 0,0
15.08.2018 02:00:00 16,1 14,3 24 13 - - SW 0,0
15.08.2018 01:00:00 15,9 14,3 24 13 - - SW 0,0
15.08.2018 00:00:00 15,7 14,3 16 9 - - SW 0,0
14.08.2018 23:00:00 15,7 14,2 22 12 - - SW 0,0
14.08.2018 22:00:00 16,1 13,9 18 10 - - WSW 0,0
14.08.2018 21:00:00 16,3 13,6 22 12 - - SW 0,0
14.08.2018 20:00:00 16,6 13,3 22 12 - - WSW 0,0
14.08.2018 19:00:00 17,1 13,7 18 10 - - WSW 0,0
14.08.2018 18:00:00 17,6 14,1 26 14 - - WSW 0,0
14.08.2018 17:00:00 18,1 14,2 24 13 - - WSW 0,0
14.08.2018 16:00:00 17,5 14,1 24 13 - - SW 0,0
14.08.2018 15:00:00 18,7 13,5 21 11 - - SW 0,0
14.08.2018 14:00:00 19,1 13,2 22 12 - - WSW 0,0
14.08.2018 13:00:00 18,2 13,5 21 11 - - SW 0,0
14.08.2018 12:00:00 16,9 13,5 22 12 - - SW 0,0
14.08.2018 11:00:00 17,4 12,5 21 11 - - SW 0,0
14.08.2018 10:00:00 16,7 12,3 15 8 - - W 0,0
14.08.2018 09:00:00 15,8 12,4 11 6 - - W 0,0
14.08.2018 08:00:00 14,3 11,6 9 5 - - WSW 0,0
14.08.2018 07:00:00 14,0 12,1 5 3 - - W 0,0
14.08.2018 06:00:00 12,8 11,6 16 9 - - WNW 0,0
14.08.2018 05:00:00 13,0 12,5 15 8 - - WNW 0,0
14.08.2018 04:00:00 14,1 13,8 13 7 - - W 0,0
14.08.2018 03:00:00 14,2 14,0 8 4 - - W 0,0
14.08.2018 02:00:00 13,9 13,8 8 4 - - W 0,0
14.08.2018 01:00:00 13,7 13,6 5 3 - - W 0,0
14.08.2018 00:00:00 14,1 13,9 4 2 - - NW 0,0
13.08.2018 23:00:00 14,1 13,8 8 4 - - NW 0,0
13.08.2018 22:00:00 14,5 14,0 8 4 - - N 0,0
13.08.2018 21:00:00 14,8 14,1 11 6 - - N 0,0
13.08.2018 20:00:00 15,3 14,2 15 8 - - N 0,0
13.08.2018 19:00:00 15,7 14,3 16 9 - - N 0,0
13.08.2018 18:00:00 16,4 14,8 16 9 - - N 0,0
13.08.2018 17:00:00 16,7 15,0 18 10 - - N 0,0
13.08.2018 16:00:00 18,9 15,8 18 10 - - N 0,0
13.08.2018 15:00:00 17,7 15,4 16 9 - - NNW 0,0
13.08.2018 14:00:00 18,5 16,1 18 10 - - N 0,0
13.08.2018 13:00:00 18,2 16,3 13 7 - - N 0,0
13.08.2018 12:00:00 18,5 16,0 15 8 - - NNE 0,0
13.08.2018 11:00:00 17,4 16,6 11 6 - - NNW 0,0
13.08.2018 10:00:00 16,4 16,2 11 6 - - NW 0,0
13.08.2018 09:00:00 16,3 16,2 8 4 - - NW 0,0
13.08.2018 08:00:00 15,5 15,5 8 4 - - NW 0,0
13.08.2018 07:00:00 15,5 15,5 8 4 - - W 0,0
13.08.2018 06:00:00 15,3 15,3 2 1 - - S 0,0
13.08.2018 05:00:00 15,4 15,4 2 1 - - E 0,0
13.08.2018 04:00:00 15,5 15,5 4 2 - - WNW 0,0
13.08.2018 03:00:00 15,6 15,6 5 3 - - WSW 0,0
13.08.2018 02:00:00 15,7 15,7 5 3 - - SSW 0,0
13.08.2018 01:00:00 15,8 15,6 9 5 - - SW 0,0
13.08.2018 00:00:00 15,8 15,5 9 5 - - SSW 0,0
12.08.2018 23:00:00 16,0 15,6 11 6 - - SSW 0,0
12.08.2018 22:00:00 16,0 15,7 13 7 - - S 0,0
12.08.2018 21:00:00 15,8 15,6 11 6 - - S 0,0
12.08.2018 20:00:00 16,4 16,1 9 5 - - S 0,6
12.08.2018 19:00:00 16,6 16,2 9 5 - - SSW 0,2
12.08.2018 18:00:00 17,1 16,5 21 11 - - SSW 0,0
12.08.2018 17:00:00 17,6 16,9 22 12 - - SSW 0,4
12.08.2018 16:00:00 18,6 16,6 21 11 - - S 0,0
12.08.2018 15:00:00 18,9 16,6 11 6 - - SSW 0,0
12.08.2018 14:00:00 18,2 16,6 13 7 - - SW 0,0
12.08.2018 13:00:00 17,9 16,6 15 8 - - SW 0,0
12.08.2018 12:00:00 16,3 16,3 16 9 - - SW 0,0
12.08.2018 11:00:00 15,5 15,5 22 12 - - SSW 0,0
12.08.2018 10:00:00 15,0 15,0 24 13 - - SSW 0,2
12.08.2018 09:00:00 14,7 14,6 22 12 - - SSW 0,2
12.08.2018 08:00:00 14,3 14,3 24 13 - - SSW 0,0
12.08.2018 07:00:00 14,3 14,3 22 12 - - SSW 0,0
12.08.2018 06:00:00 14,3 14,3 26 14 - - SSW 0,4
12.08.2018 05:00:00 14,3 14,3 22 12 - - SSW 0,8
12.08.2018 04:00:00 14,3 14,3 22 12 - - S 0,4
12.08.2018 03:00:00 14,4 14,3 26 14 - - S 0,4
12.08.2018 02:00:00 14,3 14,2 24 13 - - S 1,2
12.08.2018 01:00:00 13,9 13,8 21 11 - - S 1,0
12.08.2018 00:00:00 13,8 13,6 18 10 - - S 1,6
11.08.2018 23:00:00 15,3 12,1 26 14 - - SSW 0,0
11.08.2018 22:00:00 15,7 9,1 15 8 - - S 0,0
11.08.2018 21:00:00 14,9 9,4 18 10 - - SSE 0,0
11.08.2018 20:00:00 14,7 10,0 13 7 - - SE 0,0
11.08.2018 19:00:00 15,1 10,2 15 8 - - ESE 0,0
11.08.2018 18:00:00 15,9 9,5 15 8 - - E 0,0
11.08.2018 17:00:00 18,5 5,7 18 10 - - SSW 0,0
11.08.2018 16:00:00 18,5 5,6 22 12 - - SW 0,0
11.08.2018 15:00:00 17,7 5,5 16 9 - - SSW 0,0
11.08.2018 14:00:00 16,9 7,1 22 12 - - SW 0,0
11.08.2018 13:00:00 17,1 6,4 21 11 - - SW 0,0
11.08.2018 12:00:00 15,8 6,4 15 8 - - W 0,0
11.08.2018 11:00:00 15,3 5,9 16 9 - - W 0,0
11.08.2018 10:00:00 14,5 7,3 21 11 - - W 0,0
11.08.2018 09:00:00 12,7 7,8 11 6 - - WSW 0,0
11.08.2018 08:00:00 10,8 8,4 9 5 - - W 0,0
11.08.2018 07:00:00 9,3 7,5 13 7 - - W 0,0
11.08.2018 06:00:00 7,7 6,5 15 8 - - W 0,0
11.08.2018 05:00:00 7,6 6,0 11 6 - - WNW 0,0
11.08.2018 04:00:00 8,6 6,9 13 7 - - NW 0,0
11.08.2018 03:00:00 8,8 7,2 13 7 - - WNW 0,0
11.08.2018 02:00:00 9,1 7,6 11 6 - - NW 0,0
11.08.2018 01:00:00 8,6 7,3 8 4 - - NW 0,0
11.08.2018 00:00:00 9,0 7,1 16 9 - - W 0,0

tt = temperature
td = dewpoint
ff = wind speed
fx = gusts
dd = wind direction
rr = precipitation

Next stations